sensor_id;sensor_type;location;lat;lon;timestamp;P1;durP1;ratioP1;P2;durP2;ratioP2
41946;SDS011;27638;42.184;24.848;2023-01-24T00:01:14;31.45;;;11.90;;
41946;SDS011;27638;42.184;24.848;2023-01-24T00:03:40;27.50;;;11.30;;
41946;SDS011;27638;42.184;24.848;2023-01-24T00:06:05;22.75;;;9.82;;
41946;SDS011;27638;42.184;24.848;2023-01-24T00:08:31;29.77;;;11.27;;
41946;SDS011;27638;42.184;24.848;2023-01-24T00:10:57;32.47;;;12.30;;
41946;SDS011;27638;42.184;24.848;2023-01-24T00:13:24;31.83;;;13.65;;
41946;SDS011;27638;42.184;24.848;2023-01-24T00:15:50;33.55;;;12.70;;
41946;SDS011;27638;42.184;24.848;2023-01-24T00:18:16;27.50;;;11.40;;
41946;SDS011;27638;42.184;24.848;2023-01-24T00:20:41;31.75;;;12.63;;
41946;SDS011;27638;42.184;24.848;2023-01-24T00:23:07;26.50;;;11.90;;
41946;SDS011;27638;42.184;24.848;2023-01-24T00:25:32;30.17;;;10.85;;
41946;SDS011;27638;42.184;24.848;2023-01-24T00:27:57;26.15;;;10.40;;
41946;SDS011;27638;42.184;24.848;2023-01-24T00:30:23;25.15;;;11.05;;
41946;SDS011;27638;42.184;24.848;2023-01-24T00:32:49;31.63;;;13.77;;
41946;SDS011;27638;42.184;24.848;2023-01-24T00:35:14;21.88;;;9.07;;
41946;SDS011;27638;42.184;24.848;2023-01-24T00:37:39;31.70;;;13.45;;
41946;SDS011;27638;42.184;24.848;2023-01-24T00:40:06;31.13;;;12.80;;
41946;SDS011;27638;42.184;24.848;2023-01-24T00:42:32;33.20;;;13.50;;
41946;SDS011;27638;42.184;24.848;2023-01-24T00:44:57;33.33;;;13.55;;
41946;SDS011;27638;42.184;24.848;2023-01-24T00:47:24;33.33;;;14.05;;
41946;SDS011;27638;42.184;24.848;2023-01-24T00:49:50;31.90;;;12.55;;
41946;SDS011;27638;42.184;24.848;2023-01-24T00:52:15;32.88;;;12.50;;
41946;SDS011;27638;42.184;24.848;2023-01-24T00:54:41;28.48;;;11.68;;
41946;SDS011;27638;42.184;24.848;2023-01-24T00:57:06;31.10;;;12.15;;
41946;SDS011;27638;42.184;24.848;2023-01-24T00:59:32;31.63;;;12.40;;
41946;SDS011;27638;42.184;24.848;2023-01-24T01:01:57;25.88;;;9.27;;
41946;SDS011;27638;42.184;24.848;2023-01-24T01:04:22;39.17;;;13.98;;
41946;SDS011;27638;42.184;24.848;2023-01-24T01:06:48;31.83;;;11.13;;
41946;SDS011;27638;42.184;24.848;2023-01-24T01:09:13;34.47;;;14.10;;
41946;SDS011;27638;42.184;24.848;2023-01-24T01:11:39;33.65;;;12.60;;
41946;SDS011;27638;42.184;24.848;2023-01-24T01:14:06;27.70;;;10.95;;
41946;SDS011;27638;42.184;24.848;2023-01-24T01:16:32;32.30;;;11.55;;
41946;SDS011;27638;42.184;24.848;2023-01-24T01:19:02;33.80;;;13.75;;
41946;SDS011;27638;42.184;24.848;2023-01-24T01:21:28;30.25;;;11.60;;
41946;SDS011;27638;42.184;24.848;2023-01-24T01:23:54;35.10;;;13.93;;
41946;SDS011;27638;42.184;24.848;2023-01-24T01:26:20;34.53;;;14.38;;
41946;SDS011;27638;42.184;24.848;2023-01-24T01:28:46;43.60;;;15.38;;
41946;SDS011;27638;42.184;24.848;2023-01-24T01:31:12;26.70;;;10.73;;
41946;SDS011;27638;42.184;24.848;2023-01-24T01:33:38;39.28;;;14.80;;
41946;SDS011;27638;42.184;24.848;2023-01-24T01:36:03;35.00;;;12.52;;
41946;SDS011;27638;42.184;24.848;2023-01-24T01:38:29;32.60;;;12.30;;
41946;SDS011;27638;42.184;24.848;2023-01-24T01:40:55;34.88;;;14.40;;
41946;SDS011;27638;42.184;24.848;2023-01-24T01:43:22;35.75;;;13.18;;
41946;SDS011;27638;42.184;24.848;2023-01-24T01:45:50;39.42;;;15.20;;
41946;SDS011;27638;42.184;24.848;2023-01-24T01:51:58;28.15;;;11.57;;
41946;SDS011;27638;42.184;24.848;2023-01-24T01:54:19;29.83;;;11.52;;
41946;SDS011;27638;42.184;24.848;2023-01-24T01:56:48;30.95;;;11.25;;
41946;SDS011;27638;42.184;24.848;2023-01-24T01:59:19;24.30;;;10.15;;
41946;SDS011;27638;42.184;24.848;2023-01-24T02:01:49;31.05;;;12.00;;
41946;SDS011;27638;42.184;24.848;2023-01-24T02:04:40;30.45;;;12.50;;
41946;SDS011;27638;42.184;24.848;2023-01-24T02:07:20;31.42;;;11.35;;
41946;SDS011;27638;42.184;24.848;2023-01-24T02:09:47;34.10;;;13.10;;
41946;SDS011;27638;42.184;24.848;2023-01-24T02:12:18;28.60;;;12.02;;
41946;SDS011;27638;42.184;24.848;2023-01-24T02:14:50;24.50;;;9.30;;
41946;SDS011;27638;42.184;24.848;2023-01-24T02:17:37;24.33;;;10.68;;
41946;SDS011;27638;42.184;24.848;2023-01-24T02:22:54;29.10;;;10.88;;
41946;SDS011;27638;42.184;24.848;2023-01-24T02:28:02;29.40;;;10.63;;
41946;SDS011;27638;42.184;24.848;2023-01-24T02:30:30;33.65;;;13.45;;
41946;SDS011;27638;42.184;24.848;2023-01-24T02:32:56;25.48;;;9.23;;
41946;SDS011;27638;42.184;24.848;2023-01-24T02:35:29;32.67;;;12.32;;
41946;SDS011;27638;42.184;24.848;2023-01-24T02:37:58;27.90;;;10.40;;
41946;SDS011;27638;42.184;24.848;2023-01-24T02:40:27;30.75;;;13.32;;
41946;SDS011;27638;42.184;24.848;2023-01-24T02:42:54;39.85;;;13.73;;
41946;SDS011;27638;42.184;24.848;2023-01-24T02:45:23;29.58;;;10.68;;
41946;SDS011;27638;42.184;24.848;2023-01-24T02:47:52;36.67;;;14.80;;
41946;SDS011;27638;42.184;24.848;2023-01-24T02:50:20;46.08;;;13.82;;
41946;SDS011;27638;42.184;24.848;2023-01-24T02:52:48;30.15;;;11.68;;
41946;SDS011;27638;42.184;24.848;2023-01-24T02:55:32;30.70;;;11.90;;
41946;SDS011;27638;42.184;24.848;2023-01-24T02:57:59;31.73;;;12.48;;
41946;SDS011;27638;42.184;24.848;2023-01-24T03:00:30;17.63;;;7.95;;
41946;SDS011;27638;42.184;24.848;2023-01-24T03:02:57;23.85;;;9.43;;
41946;SDS011;27638;42.184;24.848;2023-01-24T03:05:22;31.77;;;11.48;;
41946;SDS011;27638;42.184;24.848;2023-01-24T03:07:48;32.47;;;11.98;;
41946;SDS011;27638;42.184;24.848;2023-01-24T03:10:14;33.92;;;10.75;;
41946;SDS011;27638;42.184;24.848;2023-01-24T03:12:41;34.38;;;12.77;;
41946;SDS011;27638;42.184;24.848;2023-01-24T03:15:25;29.90;;;10.65;;
41946;SDS011;27638;42.184;24.848;2023-01-24T03:18:09;20.70;;;9.93;;
41946;SDS011;27638;42.184;24.848;2023-01-24T03:20:54;25.30;;;9.30;;
41946;SDS011;27638;42.184;24.848;2023-01-24T03:23:38;29.83;;;11.65;;
41946;SDS011;27638;42.184;24.848;2023-01-24T03:26:22;27.42;;;10.45;;
41946;SDS011;27638;42.184;24.848;2023-01-24T03:29:07;26.67;;;9.93;;
41946;SDS011;27638;42.184;24.848;2023-01-24T03:31:52;22.75;;;9.38;;
41946;SDS011;27638;42.184;24.848;2023-01-24T03:34:36;16.42;;;6.70;;
41946;SDS011;27638;42.184;24.848;2023-01-24T03:37:14;17.20;;;6.88;;
41946;SDS011;27638;42.184;24.848;2023-01-24T03:39:40;25.35;;;9.15;;
41946;SDS011;27638;42.184;24.848;2023-01-24T03:42:18;21.02;;;9.05;;
41946;SDS011;27638;42.184;24.848;2023-01-24T03:44:44;16.73;;;8.48;;
41946;SDS011;27638;42.184;24.848;2023-01-24T03:47:09;25.05;;;10.57;;
41946;SDS011;27638;42.184;24.848;2023-01-24T03:49:35;15.73;;;7.00;;
41946;SDS011;27638;42.184;24.848;2023-01-24T03:52:19;26.70;;;9.93;;
41946;SDS011;27638;42.184;24.848;2023-01-24T03:54:57;25.70;;;10.70;;
41946;SDS011;27638;42.184;24.848;2023-01-24T03:57:23;21.27;;;8.60;;
41946;SDS011;27638;42.184;24.848;2023-01-24T03:59:49;19.05;;;8.60;;
41946;SDS011;27638;42.184;24.848;2023-01-24T04:02:15;17.17;;;7.00;;
41946;SDS011;27638;42.184;24.848;2023-01-24T04:04:41;22.58;;;9.55;;
41946;SDS011;27638;42.184;24.848;2023-01-24T04:07:26;24.55;;;10.48;;
41946;SDS011;27638;42.184;24.848;2023-01-24T04:09:52;14.98;;;7.53;;
41946;SDS011;27638;42.184;24.848;2023-01-24T04:12:17;21.65;;;9.27;;
41946;SDS011;27638;42.184;24.848;2023-01-24T04:14:43;20.27;;;9.00;;
41946;SDS011;27638;42.184;24.848;2023-01-24T04:17:09;16.58;;;7.90;;
41946;SDS011;27638;42.184;24.848;2023-01-24T04:19:34;17.20;;;6.75;;
41946;SDS011;27638;42.184;24.848;2023-01-24T04:22:00;16.35;;;8.40;;
41946;SDS011;27638;42.184;24.848;2023-01-24T04:24:25;23.52;;;8.55;;
41946;SDS011;27638;42.184;24.848;2023-01-24T04:26:51;19.33;;;9.77;;
41946;SDS011;27638;42.184;24.848;2023-01-24T04:29:16;19.10;;;9.38;;
41946;SDS011;27638;42.184;24.848;2023-01-24T04:31:42;17.35;;;7.22;;
41946;SDS011;27638;42.184;24.848;2023-01-24T04:34:07;22.08;;;8.35;;
41946;SDS011;27638;42.184;24.848;2023-01-24T04:36:33;21.50;;;10.15;;
41946;SDS011;27638;42.184;24.848;2023-01-24T04:38:58;27.45;;;7.82;;
41946;SDS011;27638;42.184;24.848;2023-01-24T04:41:24;23.83;;;9.40;;
41946;SDS011;27638;42.184;24.848;2023-01-24T04:43:49;18.50;;;8.50;;
41946;SDS011;27638;42.184;24.848;2023-01-24T04:46:15;21.95;;;7.70;;
41946;SDS011;27638;42.184;24.848;2023-01-24T04:48:40;17.42;;;8.00;;
41946;SDS011;27638;42.184;24.848;2023-01-24T04:51:07;20.73;;;8.18;;
41946;SDS011;27638;42.184;24.848;2023-01-24T04:53:37;22.83;;;9.27;;
41946;SDS011;27638;42.184;24.848;2023-01-24T04:56:04;22.65;;;7.40;;
41946;SDS011;27638;42.184;24.848;2023-01-24T04:58:29;33.60;;;11.65;;
41946;SDS011;27638;42.184;24.848;2023-01-24T05:00:56;27.92;;;11.05;;
41946;SDS011;27638;42.184;24.848;2023-01-24T05:03:21;16.67;;;7.97;;
41946;SDS011;27638;42.184;24.848;2023-01-24T05:05:50;24.55;;;8.50;;
41946;SDS011;27638;42.184;24.848;2023-01-24T05:08:16;27.73;;;10.43;;
41946;SDS011;27638;42.184;24.848;2023-01-24T05:10:42;26.58;;;9.70;;
41946;SDS011;27638;42.184;24.848;2023-01-24T05:13:07;22.20;;;9.52;;
41946;SDS011;27638;42.184;24.848;2023-01-24T05:15:33;19.27;;;9.63;;
41946;SDS011;27638;42.184;24.848;2023-01-24T05:17:58;23.35;;;10.80;;
41946;SDS011;27638;42.184;24.848;2023-01-24T05:20:24;20.42;;;9.57;;
41946;SDS011;27638;42.184;24.848;2023-01-24T05:22:49;21.48;;;9.98;;
41946;SDS011;27638;42.184;24.848;2023-01-24T05:25:15;22.08;;;10.43;;
41946;SDS011;27638;42.184;24.848;2023-01-24T05:27:41;21.92;;;10.30;;
41946;SDS011;27638;42.184;24.848;2023-01-24T05:30:07;18.67;;;8.77;;
41946;SDS011;27638;42.184;24.848;2023-01-24T05:32:33;21.05;;;8.18;;
41946;SDS011;27638;42.184;24.848;2023-01-24T05:34:58;20.20;;;8.02;;
41946;SDS011;27638;42.184;24.848;2023-01-24T05:37:24;16.10;;;7.50;;
41946;SDS011;27638;42.184;24.848;2023-01-24T05:39:49;18.33;;;8.25;;
41946;SDS011;27638;42.184;24.848;2023-01-24T05:42:14;12.02;;;6.13;;
41946;SDS011;27638;42.184;24.848;2023-01-24T05:44:40;17.30;;;7.07;;
41946;SDS011;27638;42.184;24.848;2023-01-24T05:47:06;13.23;;;6.38;;
41946;SDS011;27638;42.184;24.848;2023-01-24T05:49:31;11.48;;;5.78;;
41946;SDS011;27638;42.184;24.848;2023-01-24T05:51:57;17.00;;;8.18;;
41946;SDS011;27638;42.184;24.848;2023-01-24T05:54:22;17.17;;;9.30;;
41946;SDS011;27638;42.184;24.848;2023-01-24T05:56:48;18.67;;;8.27;;
41946;SDS011;27638;42.184;24.848;2023-01-24T05:59:13;22.02;;;10.63;;
41946;SDS011;27638;42.184;24.848;2023-01-24T06:01:39;21.75;;;10.20;;
41946;SDS011;27638;42.184;24.848;2023-01-24T06:04:05;21.40;;;10.13;;
41946;SDS011;27638;42.184;24.848;2023-01-24T06:06:30;23.55;;;9.90;;
41946;SDS011;27638;42.184;24.848;2023-01-24T06:08:56;19.40;;;8.80;;
41946;SDS011;27638;42.184;24.848;2023-01-24T06:11:22;17.27;;;8.55;;
41946;SDS011;27638;42.184;24.848;2023-01-24T06:13:49;22.10;;;8.57;;
41946;SDS011;27638;42.184;24.848;2023-01-24T06:16:16;20.40;;;8.43;;
41946;SDS011;27638;42.184;24.848;2023-01-24T06:18:44;16.90;;;7.82;;
41946;SDS011;27638;42.184;24.848;2023-01-24T06:23:57;17.13;;;8.95;;
41946;SDS011;27638;42.184;24.848;2023-01-24T06:26:22;14.88;;;7.13;;
41946;SDS011;27638;42.184;24.848;2023-01-24T06:28:48;15.73;;;5.93;;
41946;SDS011;27638;42.184;24.848;2023-01-24T06:34:26;14.55;;;5.88;;
41946;SDS011;27638;42.184;24.848;2023-01-24T06:37:13;25.27;;;8.60;;
41946;SDS011;27638;42.184;24.848;2023-01-24T06:39:50;17.63;;;7.63;;
41946;SDS011;27638;42.184;24.848;2023-01-24T06:42:20;14.88;;;6.82;;
41946;SDS011;27638;42.184;24.848;2023-01-24T06:44:47;14.82;;;7.32;;
41946;SDS011;27638;42.184;24.848;2023-01-24T06:47:13;22.15;;;9.90;;
41946;SDS011;27638;42.184;24.848;2023-01-24T06:49:40;23.60;;;9.80;;
41946;SDS011;27638;42.184;24.848;2023-01-24T06:52:06;15.82;;;8.05;;
41946;SDS011;27638;42.184;24.848;2023-01-24T06:54:35;15.20;;;7.95;;
41946;SDS011;27638;42.184;24.848;2023-01-24T06:57:00;19.90;;;8.73;;
41946;SDS011;27638;42.184;24.848;2023-01-24T06:59:26;11.75;;;6.47;;
41946;SDS011;27638;42.184;24.848;2023-01-24T07:01:52;13.85;;;7.22;;
41946;SDS011;27638;42.184;24.848;2023-01-24T07:04:18;12.32;;;5.65;;
41946;SDS011;27638;42.184;24.848;2023-01-24T07:06:43;15.48;;;7.68;;
41946;SDS011;27638;42.184;24.848;2023-01-24T07:09:09;11.30;;;6.13;;
41946;SDS011;27638;42.184;24.848;2023-01-24T07:11:35;19.85;;;8.48;;
41946;SDS011;27638;42.184;24.848;2023-01-24T07:14:01;13.88;;;6.72;;
41946;SDS011;27638;42.184;24.848;2023-01-24T07:16:27;15.30;;;6.32;;
41946;SDS011;27638;42.184;24.848;2023-01-24T07:18:52;19.42;;;9.52;;
41946;SDS011;27638;42.184;24.848;2023-01-24T07:21:19;17.48;;;8.63;;
41946;SDS011;27638;42.184;24.848;2023-01-24T07:23:48;18.38;;;8.23;;
41946;SDS011;27638;42.184;24.848;2023-01-24T07:26:15;12.90;;;5.80;;
41946;SDS011;27638;42.184;24.848;2023-01-24T07:28:40;16.13;;;8.88;;
41946;SDS011;27638;42.184;24.848;2023-01-24T07:31:07;10.20;;;6.05;;
41946;SDS011;27638;42.184;24.848;2023-01-24T07:33:37;10.93;;;5.32;;
41946;SDS011;27638;42.184;24.848;2023-01-24T07:36:10;12.73;;;7.40;;
41946;SDS011;27638;42.184;24.848;2023-01-24T07:38:39;12.60;;;5.75;;
41946;SDS011;27638;42.184;24.848;2023-01-24T07:41:07;17.58;;;8.57;;
41946;SDS011;27638;42.184;24.848;2023-01-24T07:43:33;18.05;;;8.23;;
41946;SDS011;27638;42.184;24.848;2023-01-24T07:45:59;17.73;;;5.63;;
41946;SDS011;27638;42.184;24.848;2023-01-24T07:48:24;9.88;;;5.03;;
41946;SDS011;27638;42.184;24.848;2023-01-24T07:50:50;12.68;;;5.63;;
41946;SDS011;27638;42.184;24.848;2023-01-24T07:53:15;14.13;;;6.70;;
41946;SDS011;27638;42.184;24.848;2023-01-24T07:55:40;10.77;;;5.72;;
41946;SDS011;27638;42.184;24.848;2023-01-24T07:58:06;13.10;;;5.90;;
41946;SDS011;27638;42.184;24.848;2023-01-24T08:00:31;11.85;;;6.20;;
41946;SDS011;27638;42.184;24.848;2023-01-24T08:02:57;16.02;;;7.95;;
41946;SDS011;27638;42.184;24.848;2023-01-24T08:05:23;14.43;;;7.93;;
41946;SDS011;27638;42.184;24.848;2023-01-24T08:07:48;13.63;;;7.40;;
41946;SDS011;27638;42.184;24.848;2023-01-24T08:10:14;16.20;;;6.95;;
41946;SDS011;27638;42.184;24.848;2023-01-24T08:12:40;11.55;;;6.97;;
41946;SDS011;27638;42.184;24.848;2023-01-24T08:15:05;13.05;;;6.28;;
41946;SDS011;27638;42.184;24.848;2023-01-24T08:17:31;15.77;;;7.80;;
41946;SDS011;27638;42.184;24.848;2023-01-24T08:19:57;17.15;;;8.57;;
41946;SDS011;27638;42.184;24.848;2023-01-24T08:22:23;10.13;;;5.45;;
41946;SDS011;27638;42.184;24.848;2023-01-24T08:24:49;11.07;;;6.95;;
41946;SDS011;27638;42.184;24.848;2023-01-24T08:27:15;9.50;;;5.75;;
41946;SDS011;27638;42.184;24.848;2023-01-24T08:29:40;8.63;;;4.88;;
41946;SDS011;27638;42.184;24.848;2023-01-24T08:32:06;16.52;;;7.68;;
41946;SDS011;27638;42.184;24.848;2023-01-24T08:34:31;10.98;;;5.60;;
41946;SDS011;27638;42.184;24.848;2023-01-24T08:36:57;13.85;;;7.70;;
41946;SDS011;27638;42.184;24.848;2023-01-24T08:39:22;14.18;;;6.93;;
41946;SDS011;27638;42.184;24.848;2023-01-24T08:41:47;10.13;;;5.43;;
41946;SDS011;27638;42.184;24.848;2023-01-24T08:44:13;17.05;;;7.80;;
41946;SDS011;27638;42.184;24.848;2023-01-24T08:46:39;14.75;;;7.30;;
41946;SDS011;27638;42.184;24.848;2023-01-24T08:49:04;12.57;;;6.47;;
41946;SDS011;27638;42.184;24.848;2023-01-24T08:51:30;13.85;;;6.63;;
41946;SDS011;27638;42.184;24.848;2023-01-24T08:53:55;12.23;;;6.20;;
41946;SDS011;27638;42.184;24.848;2023-01-24T08:56:21;10.50;;;6.13;;
41946;SDS011;27638;42.184;24.848;2023-01-24T08:58:46;9.20;;;4.00;;
41946;SDS011;27638;42.184;24.848;2023-01-24T09:01:12;12.85;;;7.03;;
41946;SDS011;27638;42.184;24.848;2023-01-24T09:03:37;15.75;;;7.00;;
41946;SDS011;27638;42.184;24.848;2023-01-24T09:06:03;14.13;;;6.07;;
41946;SDS011;27638;42.184;24.848;2023-01-24T09:08:30;9.70;;;5.40;;
41946;SDS011;27638;42.184;24.848;2023-01-24T09:10:59;12.68;;;6.40;;
41946;SDS011;27638;42.184;24.848;2023-01-24T09:13:26;12.95;;;6.95;;
41946;SDS011;27638;42.184;24.848;2023-01-24T09:15:51;14.48;;;5.43;;
41946;SDS011;27638;42.184;24.848;2023-01-24T09:18:17;13.35;;;6.00;;
41946;SDS011;27638;42.184;24.848;2023-01-24T09:20:43;16.33;;;6.10;;
41946;SDS011;27638;42.184;24.848;2023-01-24T09:23:09;15.38;;;7.80;;
41946;SDS011;27638;42.184;24.848;2023-01-24T09:25:37;14.48;;;6.22;;
41946;SDS011;27638;42.184;24.848;2023-01-24T09:28:03;11.38;;;5.28;;
41946;SDS011;27638;42.184;24.848;2023-01-24T09:30:29;16.00;;;7.15;;
41946;SDS011;27638;42.184;24.848;2023-01-24T09:32:54;16.90;;;7.75;;
41946;SDS011;27638;42.184;24.848;2023-01-24T09:35:20;7.28;;;4.28;;
41946;SDS011;27638;42.184;24.848;2023-01-24T09:37:45;12.68;;;5.47;;
41946;SDS011;27638;42.184;24.848;2023-01-24T09:42:59;10.23;;;5.82;;
41946;SDS011;27638;42.184;24.848;2023-01-24T09:45:43;11.05;;;6.22;;
41946;SDS011;27638;42.184;24.848;2023-01-24T09:48:17;9.73;;;5.30;;
41946;SDS011;27638;42.184;24.848;2023-01-24T09:53:13;11.25;;;5.35;;
41946;SDS011;27638;42.184;24.848;2023-01-24T09:55:52;8.90;;;5.15;;
41946;SDS011;27638;42.184;24.848;2023-01-24T10:01:08;11.80;;;5.32;;
41946;SDS011;27638;42.184;24.848;2023-01-24T10:03:37;9.93;;;4.03;;
41946;SDS011;27638;42.184;24.848;2023-01-24T10:06:06;11.95;;;6.07;;
41946;SDS011;27638;42.184;24.848;2023-01-24T10:08:42;11.38;;;5.57;;
41946;SDS011;27638;42.184;24.848;2023-01-24T10:19:41;11.98;;;5.60;;
41946;SDS011;27638;42.184;24.848;2023-01-24T10:24:39;8.05;;;4.40;;
41946;SDS011;27638;42.184;24.848;2023-01-24T10:27:16;9.38;;;4.70;;
41946;SDS011;27638;42.184;24.848;2023-01-24T10:30:00;11.18;;;6.75;;
41946;SDS011;27638;42.184;24.848;2023-01-24T10:32:37;10.18;;;4.68;;
41946;SDS011;27638;42.184;24.848;2023-01-24T10:35:16;7.43;;;4.30;;
41946;SDS011;27638;42.184;24.848;2023-01-24T10:37:48;9.07;;;5.03;;
41946;SDS011;27638;42.184;24.848;2023-01-24T10:40:21;10.00;;;4.78;;
41946;SDS011;27638;42.184;24.848;2023-01-24T10:42:47;10.73;;;5.38;;
41946;SDS011;27638;42.184;24.848;2023-01-24T10:51:21;5.47;;;3.55;;
41946;SDS011;27638;42.184;24.848;2023-01-24T10:53:48;9.65;;;4.72;;
41946;SDS011;27638;42.184;24.848;2023-01-24T10:56:15;10.27;;;4.88;;
41946;SDS011;27638;42.184;24.848;2023-01-24T11:01:38;8.38;;;4.30;;
41946;SDS011;27638;42.184;24.848;2023-01-24T11:06:45;8.70;;;4.10;;
41946;SDS011;27638;42.184;24.848;2023-01-24T11:09:15;6.55;;;3.58;;
41946;SDS011;27638;42.184;24.848;2023-01-24T11:11:54;10.45;;;4.53;;
41946;SDS011;27638;42.184;24.848;2023-01-24T11:14:21;6.68;;;2.97;;
41946;SDS011;27638;42.184;24.848;2023-01-24T11:16:51;6.90;;;3.38;;
41946;SDS011;27638;42.184;24.848;2023-01-24T11:21:50;5.03;;;3.30;;
41946;SDS011;27638;42.184;24.848;2023-01-24T11:24:20;6.50;;;3.58;;
41946;SDS011;27638;42.184;24.848;2023-01-24T11:29:37;7.70;;;3.75;;
41946;SDS011;27638;42.184;24.848;2023-01-24T11:37:32;7.80;;;4.53;;
41946;SDS011;27638;42.184;24.848;2023-01-24T11:40:24;9.10;;;3.75;;
41946;SDS011;27638;42.184;24.848;2023-01-24T11:46:10;7.82;;;3.85;;
41946;SDS011;27638;42.184;24.848;2023-01-24T11:48:41;6.35;;;3.70;;
41946;SDS011;27638;42.184;24.848;2023-01-24T11:51:35;5.47;;;3.65;;
41946;SDS011;27638;42.184;24.848;2023-01-24T11:54:23;6.43;;;3.10;;
41946;SDS011;27638;42.184;24.848;2023-01-24T12:13:15;7.57;;;4.35;;
41946;SDS011;27638;42.184;24.848;2023-01-24T12:21:20;6.63;;;4.10;;
41946;SDS011;27638;42.184;24.848;2023-01-24T12:23:50;7.03;;;3.85;;
41946;SDS011;27638;42.184;24.848;2023-01-24T12:40:15;6.32;;;3.53;;
41946;SDS011;27638;42.184;24.848;2023-01-24T12:45:40;4.85;;;3.30;;
41946;SDS011;27638;42.184;24.848;2023-01-24T12:51:28;6.60;;;3.97;;
41946;SDS011;27638;42.184;24.848;2023-01-24T12:59:45;9.48;;;3.75;;
41946;SDS011;27638;42.184;24.848;2023-01-24T13:05:02;9.80;;;4.47;;
41946;SDS011;27638;42.184;24.848;2023-01-24T13:07:51;10.10;;;5.03;;
41946;SDS011;27638;42.184;24.848;2023-01-24T13:12:57;6.68;;;4.20;;
41946;SDS011;27638;42.184;24.848;2023-01-24T13:15:39;9.27;;;4.57;;
41946;SDS011;27638;42.184;24.848;2023-01-24T13:23:33;7.43;;;3.97;;
41946;SDS011;27638;42.184;24.848;2023-01-24T13:26:12;9.05;;;4.20;;
41946;SDS011;27638;42.184;24.848;2023-01-24T13:29:01;6.75;;;4.22;;
41946;SDS011;27638;42.184;24.848;2023-01-24T13:34:31;7.95;;;4.75;;
41946;SDS011;27638;42.184;24.848;2023-01-24T13:37:00;8.02;;;4.55;;
41946;SDS011;27638;42.184;24.848;2023-01-24T13:39:29;7.20;;;4.13;;
41946;SDS011;27638;42.184;24.848;2023-01-24T13:44:45;9.05;;;4.88;;
41946;SDS011;27638;42.184;24.848;2023-01-24T13:54:59;6.88;;;3.67;;
41946;SDS011;27638;42.184;24.848;2023-01-24T13:57:26;7.15;;;3.70;;
41946;SDS011;27638;42.184;24.848;2023-01-24T14:02:32;15.63;;;7.20;;
41946;SDS011;27638;42.184;24.848;2023-01-24T14:08:39;7.68;;;3.80;;
41946;SDS011;27638;42.184;24.848;2023-01-24T14:10:45;9.57;;;5.53;;
41946;SDS011;27638;42.184;24.848;2023-01-24T14:18:49;7.97;;;4.63;;
41946;SDS011;27638;42.184;24.848;2023-01-24T14:21:20;12.13;;;5.82;;
41946;SDS011;27638;42.184;24.848;2023-01-24T14:23:59;16.50;;;7.93;;
41946;SDS011;27638;42.184;24.848;2023-01-24T14:26:31;13.48;;;6.47;;
41946;SDS011;27638;42.184;24.848;2023-01-24T14:29:00;9.57;;;5.65;;
41946;SDS011;27638;42.184;24.848;2023-01-24T14:31:32;8.57;;;4.90;;
41946;SDS011;27638;42.184;24.848;2023-01-24T14:37:08;6.13;;;4.32;;
41946;SDS011;27638;42.184;24.848;2023-01-24T14:39:34;8.45;;;4.45;;
41946;SDS011;27638;42.184;24.848;2023-01-24T14:42:01;10.63;;;6.25;;
41946;SDS011;27638;42.184;24.848;2023-01-24T14:44:38;9.07;;;5.18;;
41946;SDS011;27638;42.184;24.848;2023-01-24T14:47:16;9.27;;;4.90;;
41946;SDS011;27638;42.184;24.848;2023-01-24T14:49:45;7.70;;;4.30;;
41946;SDS011;27638;42.184;24.848;2023-01-24T14:52:19;11.93;;;6.38;;
41946;SDS011;27638;42.184;24.848;2023-01-24T14:54:48;9.40;;;5.28;;
41946;SDS011;27638;42.184;24.848;2023-01-24T14:57:20;12.00;;;7.80;;
41946;SDS011;27638;42.184;24.848;2023-01-24T15:00:00;18.88;;;10.20;;
41946;SDS011;27638;42.184;24.848;2023-01-24T15:02:28;15.50;;;8.95;;
41946;SDS011;27638;42.184;24.848;2023-01-24T15:04:54;13.88;;;7.47;;
41946;SDS011;27638;42.184;24.848;2023-01-24T15:07:19;11.77;;;7.15;;
41946;SDS011;27638;42.184;24.848;2023-01-24T15:09:47;9.95;;;6.55;;
41946;SDS011;27638;42.184;24.848;2023-01-24T15:14:58;12.40;;;7.82;;
41946;SDS011;27638;42.184;24.848;2023-01-24T15:17:27;16.00;;;8.60;;
41946;SDS011;27638;42.184;24.848;2023-01-24T15:19:58;9.73;;;6.95;;
41946;SDS011;27638;42.184;24.848;2023-01-24T15:22:36;14.43;;;7.95;;
41946;SDS011;27638;42.184;24.848;2023-01-24T15:25:03;16.48;;;8.18;;
41946;SDS011;27638;42.184;24.848;2023-01-24T15:27:43;13.07;;;7.82;;
41946;SDS011;27638;42.184;24.848;2023-01-24T15:41:01;11.15;;;6.50;;
41946;SDS011;27638;42.184;24.848;2023-01-24T15:49:21;33.42;;;15.73;;
41946;SDS011;27638;42.184;24.848;2023-01-24T15:54:41;21.83;;;11.48;;
41946;SDS011;27638;42.184;24.848;2023-01-24T15:57:21;17.73;;;10.15;;
41946;SDS011;27638;42.184;24.848;2023-01-24T16:02:19;12.07;;;7.97;;
41946;SDS011;27638;42.184;24.848;2023-01-24T16:04:45;10.50;;;6.72;;
41946;SDS011;27638;42.184;24.848;2023-01-24T16:07:13;15.48;;;6.07;;
41946;SDS011;27638;42.184;24.848;2023-01-24T16:09:39;9.02;;;4.93;;
41946;SDS011;27638;42.184;24.848;2023-01-24T16:12:04;8.82;;;5.15;;
41946;SDS011;27638;42.184;24.848;2023-01-24T16:14:33;8.77;;;5.32;;
41946;SDS011;27638;42.184;24.848;2023-01-24T16:16:59;8.23;;;5.18;;
41946;SDS011;27638;42.184;24.848;2023-01-24T16:19:27;8.82;;;4.97;;
41946;SDS011;27638;42.184;24.848;2023-01-24T16:21:53;8.88;;;5.32;;
41946;SDS011;27638;42.184;24.848;2023-01-24T16:24:19;8.85;;;5.07;;
41946;SDS011;27638;42.184;24.848;2023-01-24T16:26:48;10.70;;;5.45;;
41946;SDS011;27638;42.184;24.848;2023-01-24T16:29:16;10.18;;;5.97;;
41946;SDS011;27638;42.184;24.848;2023-01-24T16:31:45;9.25;;;5.57;;
41946;SDS011;27638;42.184;24.848;2023-01-24T16:34:11;15.20;;;7.90;;
41946;SDS011;27638;42.184;24.848;2023-01-24T16:36:38;12.07;;;8.63;;
41946;SDS011;27638;42.184;24.848;2023-01-24T16:39:04;17.65;;;9.30;;
41946;SDS011;27638;42.184;24.848;2023-01-24T16:41:30;15.32;;;9.65;;
41946;SDS011;27638;42.184;24.848;2023-01-24T16:43:57;16.17;;;10.63;;
41946;SDS011;27638;42.184;24.848;2023-01-24T16:46:22;17.35;;;10.05;;
41946;SDS011;27638;42.184;24.848;2023-01-24T16:48:48;18.60;;;10.52;;
41946;SDS011;27638;42.184;24.848;2023-01-24T16:51:15;18.30;;;10.27;;
41946;SDS011;27638;42.184;24.848;2023-01-24T16:53:42;23.73;;;13.27;;
41946;SDS011;27638;42.184;24.848;2023-01-24T16:56:08;25.45;;;13.73;;
41946;SDS011;27638;42.184;24.848;2023-01-24T16:58:34;22.67;;;13.90;;
41946;SDS011;27638;42.184;24.848;2023-01-24T17:01:06;24.13;;;13.35;;
41946;SDS011;27638;42.184;24.848;2023-01-24T17:03:33;23.95;;;13.15;;
41946;SDS011;27638;42.184;24.848;2023-01-24T17:05:59;22.08;;;13.20;;
41946;SDS011;27638;42.184;24.848;2023-01-24T17:08:25;25.38;;;13.27;;
41946;SDS011;27638;42.184;24.848;2023-01-24T17:10:50;22.73;;;13.95;;
41946;SDS011;27638;42.184;24.848;2023-01-24T17:13:16;28.52;;;12.48;;
41946;SDS011;27638;42.184;24.848;2023-01-24T17:15:41;22.23;;;13.13;;
41946;SDS011;27638;42.184;24.848;2023-01-24T17:18:07;22.73;;;13.27;;
41946;SDS011;27638;42.184;24.848;2023-01-24T17:20:32;21.27;;;12.50;;